sensor_id;sensor_type;location;lat;lon;timestamp;temperature;humidity
15951;DHT22;8074;48.112;11.570;2022-10-16T00:00:05;12.60;99.90
15951;DHT22;8074;48.112;11.570;2022-10-16T00:02:52;12.60;99.90
15951;DHT22;8074;48.112;11.570;2022-10-16T00:05:41;12.40;99.90
15951;DHT22;8074;48.112;11.570;2022-10-16T00:08:29;12.50;99.90
15951;DHT22;8074;48.112;11.570;2022-10-16T00:11:19;12.60;99.90
15951;DHT22;8074;48.112;11.570;2022-10-16T00:14:10;12.50;99.90
15951;DHT22;8074;48.112;11.570;2022-10-16T00:16:57;12.50;99.90
15951;DHT22;8074;48.112;11.570;2022-10-16T00:19:44;12.50;99.90
15951;DHT22;8074;48.112;11.570;2022-10-16T00:22:32;12.30;99.90
15951;DHT22;8074;48.112;11.570;2022-10-16T00:25:19;12.40;99.90
15951;DHT22;8074;48.112;11.570;2022-10-16T00:28:06;12.50;99.90
15951;DHT22;8074;48.112;11.570;2022-10-16T00:30:55;12.40;99.90
15951;DHT22;8074;48.112;11.570;2022-10-16T00:33:42;12.40;99.90
15951;DHT22;8074;48.112;11.570;2022-10-16T00:36:29;12.20;99.90
15951;DHT22;8074;48.112;11.570;2022-10-16T00:39:17;12.30;99.90
15951;DHT22;8074;48.112;11.570;2022-10-16T00:42:05;12.30;99.90
15951;DHT22;8074;48.112;11.570;2022-10-16T00:44:54;12.30;99.90
15951;DHT22;8074;48.112;11.570;2022-10-16T00:47:45;12.30;99.90
15951;DHT22;8074;48.112;11.570;2022-10-16T00:50:35;12.40;99.90
15951;DHT22;8074;48.112;11.570;2022-10-16T00:53:24;12.40;99.90
15951;DHT22;8074;48.112;11.570;2022-10-16T00:56:12;12.40;99.90
15951;DHT22;8074;48.112;11.570;2022-10-16T00:59:01;12.30;99.90
15951;DHT22;8074;48.112;11.570;2022-10-16T01:01:51;12.20;99.90
15951;DHT22;8074;48.112;11.570;2022-10-16T01:04:42;12.40;99.90
15951;DHT22;8074;48.112;11.570;2022-10-16T01:07:36;12.40;99.90
15951;DHT22;8074;48.112;11.570;2022-10-16T01:10:31;12.20;99.90
15951;DHT22;8074;48.112;11.570;2022-10-16T01:13:25;12.30;99.90
15951;DHT22;8074;48.112;11.570;2022-10-16T01:16:20;12.30;99.90
15951;DHT22;8074;48.112;11.570;2022-10-16T01:19:12;12.00;99.90
15951;DHT22;8074;48.112;11.570;2022-10-16T01:22:03;11.90;99.90
15951;DHT22;8074;48.112;11.570;2022-10-16T01:24:54;11.90;99.90
15951;DHT22;8074;48.112;11.570;2022-10-16T01:27:46;12.10;99.90
15951;DHT22;8074;48.112;11.570;2022-10-16T01:30:35;12.20;99.90
15951;DHT22;8074;48.112;11.570;2022-10-16T01:33:26;12.20;99.90
15951;DHT22;8074;48.112;11.570;2022-10-16T01:36:19;12.00;99.90
15951;DHT22;8074;48.112;11.570;2022-10-16T01:39:10;12.00;99.90
15951;DHT22;8074;48.112;11.570;2022-10-16T01:42:02;12.20;99.90
15951;DHT22;8074;48.112;11.570;2022-10-16T01:44:53;12.20;99.90
15951;DHT22;8074;48.112;11.570;2022-10-16T01:47:42;12.20;99.90
15951;DHT22;8074;48.112;11.570;2022-10-16T01:50:32;12.10;99.90
15951;DHT22;8074;48.112;11.570;2022-10-16T01:53:20;12.10;99.90
15951;DHT22;8074;48.112;11.570;2022-10-16T01:56:10;12.20;99.90
15951;DHT22;8074;48.112;11.570;2022-10-16T01:59:02;12.10;99.90
15951;DHT22;8074;48.112;11.570;2022-10-16T02:01:55;12.10;99.90
15951;DHT22;8074;48.112;11.570;2022-10-16T02:04:46;12.20;99.90
15951;DHT22;8074;48.112;11.570;2022-10-16T02:07:34;12.20;99.90
15951;DHT22;8074;48.112;11.570;2022-10-16T02:10:22;12.30;99.90
15951;DHT22;8074;48.112;11.570;2022-10-16T02:13:11;12.30;99.90
15951;DHT22;8074;48.112;11.570;2022-10-16T02:16:00;12.30;99.90
15951;DHT22;8074;48.112;11.570;2022-10-16T02:18:49;12.30;99.90
15951;DHT22;8074;48.112;11.570;2022-10-16T02:21:41;12.30;99.90
15951;DHT22;8074;48.112;11.570;2022-10-16T02:24:34;12.20;99.90
15951;DHT22;8074;48.112;11.570;2022-10-16T02:27:29;12.10;99.90
15951;DHT22;8074;48.112;11.570;2022-10-16T02:30:22;12.10;99.90
15951;DHT22;8074;48.112;11.570;2022-10-16T02:33:13;12.20;99.90
15951;DHT22;8074;48.112;11.570;2022-10-16T02:36:02;12.10;99.90
15951;DHT22;8074;48.112;11.570;2022-10-16T02:38:50;12.10;99.90
15951;DHT22;8074;48.112;11.570;2022-10-16T02:41:38;12.10;99.90
15951;DHT22;8074;48.112;11.570;2022-10-16T02:44:25;12.10;99.90
15951;DHT22;8074;48.112;11.570;2022-10-16T02:47:12;12.30;99.90
15951;DHT22;8074;48.112;11.570;2022-10-16T02:49:59;12.50;99.90
15951;DHT22;8074;48.112;11.570;2022-10-16T02:52:48;12.60;99.90
15951;DHT22;8074;48.112;11.570;2022-10-16T02:55:35;12.70;99.90
15951;DHT22;8074;48.112;11.570;2022-10-16T02:58:22;12.60;99.90
15951;DHT22;8074;48.112;11.570;2022-10-16T03:01:09;12.30;99.90
15951;DHT22;8074;48.112;11.570;2022-10-16T03:03:58;12.30;99.90
15951;DHT22;8074;48.112;11.570;2022-10-16T03:06:45;12.30;99.90
15951;DHT22;8074;48.112;11.570;2022-10-16T03:09:34;12.10;99.90
15951;DHT22;8074;48.112;11.570;2022-10-16T03:12:21;12.10;99.90
15951;DHT22;8074;48.112;11.570;2022-10-16T03:15:09;12.30;99.90
15951;DHT22;8074;48.112;11.570;2022-10-16T03:17:57;12.30;99.90
15951;DHT22;8074;48.112;11.570;2022-10-16T03:20:45;12.00;99.90
15951;DHT22;8074;48.112;11.570;2022-10-16T03:23:32;12.10;99.90
15951;DHT22;8074;48.112;11.570;2022-10-16T03:26:21;12.20;99.90
15951;DHT22;8074;48.112;11.570;2022-10-16T03:29:08;12.20;99.90
15951;DHT22;8074;48.112;11.570;2022-10-16T03:31:55;11.90;99.90
15951;DHT22;8074;48.112;11.570;2022-10-16T03:34:43;11.90;99.90
15951;DHT22;8074;48.112;11.570;2022-10-16T03:37:30;11.90;99.90
15951;DHT22;8074;48.112;11.570;2022-10-16T03:40:17;12.00;99.90
15951;DHT22;8074;48.112;11.570;2022-10-16T03:43:06;12.10;99.90
15951;DHT22;8074;48.112;11.570;2022-10-16T03:45:53;12.00;99.90
15951;DHT22;8074;48.112;11.570;2022-10-16T03:48:40;12.30;99.90
15951;DHT22;8074;48.112;11.570;2022-10-16T03:51:27;12.20;99.90
15951;DHT22;8074;48.112;11.570;2022-10-16T03:54:15;12.40;99.90
15951;DHT22;8074;48.112;11.570;2022-10-16T03:57:02;12.50;99.90
15951;DHT22;8074;48.112;11.570;2022-10-16T03:59:51;12.60;99.90
15951;DHT22;8074;48.112;11.570;2022-10-16T04:02:38;12.80;99.90
15951;DHT22;8074;48.112;11.570;2022-10-16T04:05:25;12.80;99.90
15951;DHT22;8074;48.112;11.570;2022-10-16T04:08:12;12.80;99.90
15951;DHT22;8074;48.112;11.570;2022-10-16T04:11:00;12.80;99.90
15951;DHT22;8074;48.112;11.570;2022-10-16T04:13:47;12.70;99.90
15951;DHT22;8074;48.112;11.570;2022-10-16T04:16:35;12.70;99.90
15951;DHT22;8074;48.112;11.570;2022-10-16T04:19:22;12.90;99.90
15951;DHT22;8074;48.112;11.570;2022-10-16T04:22:11;12.90;99.90
15951;DHT22;8074;48.112;11.570;2022-10-16T04:24:38;13.00;99.90
15951;DHT22;8074;48.112;11.570;2022-10-16T04:27:05;13.10;99.90
15951;DHT22;8074;48.112;11.570;2022-10-16T04:29:32;13.30;99.90
15951;DHT22;8074;48.112;11.570;2022-10-16T04:32:00;13.20;99.90
15951;DHT22;8074;48.112;11.570;2022-10-16T04:34:27;13.10;99.90
15951;DHT22;8074;48.112;11.570;2022-10-16T04:36:54;13.00;99.90
15951;DHT22;8074;48.112;11.570;2022-10-16T04:39:21;13.10;99.90
15951;DHT22;8074;48.112;11.570;2022-10-16T04:41:48;13.20;99.90
15951;DHT22;8074;48.112;11.570;2022-10-16T04:44:14;13.00;99.90
15951;DHT22;8074;48.112;11.570;2022-10-16T04:46:42;12.80;99.90
15951;DHT22;8074;48.112;11.570;2022-10-16T04:49:11;13.00;99.90
15951;DHT22;8074;48.112;11.570;2022-10-16T04:51:38;13.00;99.90
15951;DHT22;8074;48.112;11.570;2022-10-16T04:54:05;12.90;99.90
15951;DHT22;8074;48.112;11.570;2022-10-16T04:56:31;13.10;99.90
15951;DHT22;8074;48.112;11.570;2022-10-16T04:59:05;13.20;99.90
15951;DHT22;8074;48.112;11.570;2022-10-16T05:01:32;13.10;99.90
15951;DHT22;8074;48.112;11.570;2022-10-16T05:03:59;13.10;99.90
15951;DHT22;8074;48.112;11.570;2022-10-16T05:06:28;13.30;99.90
15951;DHT22;8074;48.112;11.570;2022-10-16T05:08:55;13.20;99.90
15951;DHT22;8074;48.112;11.570;2022-10-16T05:11:22;12.90;99.90
15951;DHT22;8074;48.112;11.570;2022-10-16T05:13:48;13.00;99.90
15951;DHT22;8074;48.112;11.570;2022-10-16T05:16:15;13.10;99.90
15951;DHT22;8074;48.112;11.570;2022-10-16T05:18:43;13.20;99.90
15951;DHT22;8074;48.112;11.570;2022-10-16T05:21:10;13.30;99.90
15951;DHT22;8074;48.112;11.570;2022-10-16T05:23:38;13.10;99.90
15951;DHT22;8074;48.112;11.570;2022-10-16T05:26:05;13.00;99.90
15951;DHT22;8074;48.112;11.570;2022-10-16T05:28:32;13.00;99.90
15951;DHT22;8074;48.112;11.570;2022-10-16T05:31:05;13.10;99.90
15951;DHT22;8074;48.112;11.570;2022-10-16T05:33:33;13.30;99.90
15951;DHT22;8074;48.112;11.570;2022-10-16T05:36:01;13.50;99.90
15951;DHT22;8074;48.112;11.570;2022-10-16T05:38:28;13.50;99.90
15951;DHT22;8074;48.112;11.570;2022-10-16T05:40:57;13.30;99.90
15951;DHT22;8074;48.112;11.570;2022-10-16T05:43:24;13.10;99.90
15951;DHT22;8074;48.112;11.570;2022-10-16T05:45:55;13.00;99.90
15951;DHT22;8074;48.112;11.570;2022-10-16T05:48:22;13.10;99.90
15951;DHT22;8074;48.112;11.570;2022-10-16T05:50:56;13.10;99.90
15951;DHT22;8074;48.112;11.570;2022-10-16T05:53:24;12.90;99.90
15951;DHT22;8074;48.112;11.570;2022-10-16T05:55:54;12.60;99.90
15951;DHT22;8074;48.112;11.570;2022-10-16T05:58:23;12.70;99.90
15951;DHT22;8074;48.112;11.570;2022-10-16T06:00:54;12.80;99.90
15951;DHT22;8074;48.112;11.570;2022-10-16T06:03:22;12.80;99.90
15951;DHT22;8074;48.112;11.570;2022-10-16T06:05:49;13.00;99.90
15951;DHT22;8074;48.112;11.570;2022-10-16T06:08:16;13.10;99.90
15951;DHT22;8074;48.112;11.570;2022-10-16T06:10:44;13.00;99.90
15951;DHT22;8074;48.112;11.570;2022-10-16T06:13:11;13.00;99.90
15951;DHT22;8074;48.112;11.570;2022-10-16T06:15:42;13.10;99.90
15951;DHT22;8074;48.112;11.570;2022-10-16T06:18:09;13.20;99.90
15951;DHT22;8074;48.112;11.570;2022-10-16T06:20:37;13.30;99.90
15951;DHT22;8074;48.112;11.570;2022-10-16T06:23:04;13.30;99.90
15951;DHT22;8074;48.112;11.570;2022-10-16T06:25:31;13.30;99.90
15951;DHT22;8074;48.112;11.570;2022-10-16T06:27:58;13.50;99.90
15951;DHT22;8074;48.112;11.570;2022-10-16T06:30:25;13.50;99.90
15951;DHT22;8074;48.112;11.570;2022-10-16T06:32:54;13.60;99.90
15951;DHT22;8074;48.112;11.570;2022-10-16T06:35:21;13.60;99.90
15951;DHT22;8074;48.112;11.570;2022-10-16T06:37:48;13.60;99.90
15951;DHT22;8074;48.112;11.570;2022-10-16T06:40:15;13.70;99.90
15951;DHT22;8074;48.112;11.570;2022-10-16T06:42:42;13.80;99.90
15951;DHT22;8074;48.112;11.570;2022-10-16T06:45:09;13.80;99.90
15951;DHT22;8074;48.112;11.570;2022-10-16T06:47:37;14.00;99.90
15951;DHT22;8074;48.112;11.570;2022-10-16T06:50:07;14.00;99.90
15951;DHT22;8074;48.112;11.570;2022-10-16T06:52:34;14.00;99.90
15951;DHT22;8074;48.112;11.570;2022-10-16T06:55:02;14.10;99.90
15951;DHT22;8074;48.112;11.570;2022-10-16T06:57:33;14.00;99.90
15951;DHT22;8074;48.112;11.570;2022-10-16T07:00:00;14.00;99.90
15951;DHT22;8074;48.112;11.570;2022-10-16T07:02:27;14.10;99.90
15951;DHT22;8074;48.112;11.570;2022-10-16T07:04:54;14.30;99.90
15951;DHT22;8074;48.112;11.570;2022-10-16T07:07:23;14.30;99.90
15951;DHT22;8074;48.112;11.570;2022-10-16T07:09:52;14.50;99.90
15951;DHT22;8074;48.112;11.570;2022-10-16T07:12:19;14.60;99.90
15951;DHT22;8074;48.112;11.570;2022-10-16T07:14:46;14.50;99.90
15951;DHT22;8074;48.112;11.570;2022-10-16T07:17:13;14.60;99.90
15951;DHT22;8074;48.112;11.570;2022-10-16T07:19:40;15.40;99.90
15951;DHT22;8074;48.112;11.570;2022-10-16T07:22:07;16.30;99.90
15951;DHT22;8074;48.112;11.570;2022-10-16T07:24:42;17.40;99.90
15951;DHT22;8074;48.112;11.570;2022-10-16T07:27:10;18.10;99.90
15951;DHT22;8074;48.112;11.570;2022-10-16T07:29:37;18.50;99.90
15951;DHT22;8074;48.112;11.570;2022-10-16T07:32:06;18.40;99.90
15951;DHT22;8074;48.112;11.570;2022-10-16T07:34:50;18.40;99.90
15951;DHT22;8074;48.112;11.570;2022-10-16T07:37:19;18.40;99.90
15951;DHT22;8074;48.112;11.570;2022-10-16T07:39:48;18.50;99.90
15951;DHT22;8074;48.112;11.570;2022-10-16T07:42:16;18.30;99.90
15951;DHT22;8074;48.112;11.570;2022-10-16T07:44:44;18.20;99.90
15951;DHT22;8074;48.112;11.570;2022-10-16T07:47:12;18.10;99.90
15951;DHT22;8074;48.112;11.570;2022-10-16T07:49:39;18.00;99.90
15951;DHT22;8074;48.112;11.570;2022-10-16T07:52:06;17.90;99.90
15951;DHT22;8074;48.112;11.570;2022-10-16T07:54:33;18.00;99.90
15951;DHT22;8074;48.112;11.570;2022-10-16T07:57:02;18.40;99.90
15951;DHT22;8074;48.112;11.570;2022-10-16T07:59:29;18.60;99.90
15951;DHT22;8074;48.112;11.570;2022-10-16T08:01:56;18.50;99.90
15951;DHT22;8074;48.112;11.570;2022-10-16T08:04:24;18.20;99.90
15951;DHT22;8074;48.112;11.570;2022-10-16T08:06:51;18.10;99.90
15951;DHT22;8074;48.112;11.570;2022-10-16T08:09:20;18.10;99.90
15951;DHT22;8074;48.112;11.570;2022-10-16T08:11:47;18.20;99.90
15951;DHT22;8074;48.112;11.570;2022-10-16T08:14:16;18.30;99.90
15951;DHT22;8074;48.112;11.570;2022-10-16T08:16:43;18.40;99.90
15951;DHT22;8074;48.112;11.570;2022-10-16T08:19:10;18.60;99.90
15951;DHT22;8074;48.112;11.570;2022-10-16T08:21:37;18.90;99.90
15951;DHT22;8074;48.112;11.570;2022-10-16T08:24:04;19.00;99.90
15951;DHT22;8074;48.112;11.570;2022-10-16T08:26:31;19.00;99.90
15951;DHT22;8074;48.112;11.570;2022-10-16T08:29:01;19.10;99.90
15951;DHT22;8074;48.112;11.570;2022-10-16T08:31:29;19.40;99.90
15951;DHT22;8074;48.112;11.570;2022-10-16T08:33:56;20.00;99.90
15951;DHT22;8074;48.112;11.570;2022-10-16T08:36:23;20.40;99.90
15951;DHT22;8074;48.112;11.570;2022-10-16T08:38:50;20.70;99.90
15951;DHT22;8074;48.112;11.570;2022-10-16T08:41:27;21.60;99.90
15951;DHT22;8074;48.112;11.570;2022-10-16T08:44:23;22.10;99.90
15951;DHT22;8074;48.112;11.570;2022-10-16T08:47:01;22.90;99.90
15951;DHT22;8074;48.112;11.570;2022-10-16T08:49:30;23.30;99.90
15951;DHT22;8074;48.112;11.570;2022-10-16T08:51:57;23.60;99.90
15951;DHT22;8074;48.112;11.570;2022-10-16T08:54:29;23.70;99.90
15951;DHT22;8074;48.112;11.570;2022-10-16T08:56:56;23.40;99.90
15951;DHT22;8074;48.112;11.570;2022-10-16T08:59:23;23.20;99.90
15951;DHT22;8074;48.112;11.570;2022-10-16T09:01:51;23.20;99.90
15951;DHT22;8074;48.112;11.570;2022-10-16T09:04:49;23.10;99.90
15951;DHT22;8074;48.112;11.570;2022-10-16T09:07:27;23.60;99.90
15951;DHT22;8074;48.112;11.570;2022-10-16T09:10:08;23.70;99.90
15951;DHT22;8074;48.112;11.570;2022-10-16T09:12:40;23.30;99.90
15951;DHT22;8074;48.112;11.570;2022-10-16T09:15:20;23.00;99.90
15951;DHT22;8074;48.112;11.570;2022-10-16T09:17:55;23.20;99.90
15951;DHT22;8074;48.112;11.570;2022-10-16T09:20:42;23.30;99.90
15951;DHT22;8074;48.112;11.570;2022-10-16T09:23:14;23.90;99.90
15951;DHT22;8074;48.112;11.570;2022-10-16T09:25:44;24.60;99.90
15951;DHT22;8074;48.112;11.570;2022-10-16T09:28:14;24.30;99.90
15951;DHT22;8074;48.112;11.570;2022-10-16T09:30:42;23.60;99.90
15951;DHT22;8074;48.112;11.570;2022-10-16T09:33:10;24.00;99.90
15951;DHT22;8074;48.112;11.570;2022-10-16T09:35:41;24.80;99.90
15951;DHT22;8074;48.112;11.570;2022-10-16T09:38:21;25.40;99.90
15951;DHT22;8074;48.112;11.570;2022-10-16T09:40:50;25.80;99.90
15951;DHT22;8074;48.112;11.570;2022-10-16T09:43:22;26.50;99.90
15951;DHT22;8074;48.112;11.570;2022-10-16T09:45:55;26.70;99.90
15951;DHT22;8074;48.112;11.570;2022-10-16T09:48:22;27.00;99.90
15951;DHT22;8074;48.112;11.570;2022-10-16T09:51:01;26.70;99.90
15951;DHT22;8074;48.112;11.570;2022-10-16T09:53:40;26.30;99.90
15951;DHT22;8074;48.112;11.570;2022-10-16T09:56:21;26.00;99.90
15951;DHT22;8074;48.112;11.570;2022-10-16T09:59:00;25.70;99.90
15951;DHT22;8074;48.112;11.570;2022-10-16T10:01:36;25.70;99.90
15951;DHT22;8074;48.112;11.570;2022-10-16T10:04:05;25.60;99.90
15951;DHT22;8074;48.112;11.570;2022-10-16T10:06:36;25.60;99.90
15951;DHT22;8074;48.112;11.570;2022-10-16T10:09:17;25.50;99.90
15951;DHT22;8074;48.112;11.570;2022-10-16T10:11:48;25.50;99.90
15951;DHT22;8074;48.112;11.570;2022-10-16T10:14:19;25.70;99.90
15951;DHT22;8074;48.112;11.570;2022-10-16T10:16:48;26.00;99.90
15951;DHT22;8074;48.112;11.570;2022-10-16T10:19:17;26.40;99.90
15951;DHT22;8074;48.112;11.570;2022-10-16T10:21:46;27.50;99.90
15951;DHT22;8074;48.112;11.570;2022-10-16T10:24:14;27.90;99.90
15951;DHT22;8074;48.112;11.570;2022-10-16T10:26:48;28.10;99.90
15951;DHT22;8074;48.112;11.570;2022-10-16T10:29:28;29.00;99.90
15951;DHT22;8074;48.112;11.570;2022-10-16T10:32:12;29.50;99.90
15951;DHT22;8074;48.112;11.570;2022-10-16T10:34:54;28.90;99.90
15951;DHT22;8074;48.112;11.570;2022-10-16T10:37:58;27.90;99.90
15951;DHT22;8074;48.112;11.570;2022-10-16T10:40:39;26.80;99.90
15951;DHT22;8074;48.112;11.570;2022-10-16T10:43:13;26.00;99.90
15951;DHT22;8074;48.112;11.570;2022-10-16T10:45:43;25.90;99.90
15951;DHT22;8074;48.112;11.570;2022-10-16T10:48:39;25.70;99.90
15951;DHT22;8074;48.112;11.570;2022-10-16T10:51:19;25.70;99.90
15951;DHT22;8074;48.112;11.570;2022-10-16T10:53:52;25.80;99.90
15951;DHT22;8074;48.112;11.570;2022-10-16T10:56:39;25.80;99.90
15951;DHT22;8074;48.112;11.570;2022-10-16T10:59:28;25.30;99.90
15951;DHT22;8074;48.112;11.570;2022-10-16T11:02:00;25.20;99.90
15951;DHT22;8074;48.112;11.570;2022-10-16T11:04:43;25.40;99.90
15951;DHT22;8074;48.112;11.570;2022-10-16T11:07:16;25.60;99.90
15951;DHT22;8074;48.112;11.570;2022-10-16T11:09:47;25.70;99.90
15951;DHT22;8074;48.112;11.570;2022-10-16T11:12:18;26.20;99.90
15951;DHT22;8074;48.112;11.570;2022-10-16T11:14:50;26.20;99.90
15951;DHT22;8074;48.112;11.570;2022-10-16T11:17:24;26.20;99.90
15951;DHT22;8074;48.112;11.570;2022-10-16T11:19:56;26.50;99.90
15951;DHT22;8074;48.112;11.570;2022-10-16T11:22:29;26.80;99.90
15951;DHT22;8074;48.112;11.570;2022-10-16T11:25:06;26.70;99.90
15951;DHT22;8074;48.112;11.570;2022-10-16T11:27:41;26.90;99.90
15951;DHT22;8074;48.112;11.570;2022-10-16T11:30:25;27.20;99.90
15951;DHT22;8074;48.112;11.570;2022-10-16T11:33:02;28.10;99.90
15951;DHT22;8074;48.112;11.570;2022-10-16T11:35:39;28.80;99.90
15951;DHT22;8074;48.112;11.570;2022-10-16T11:38:14;28.70;99.90
15951;DHT22;8074;48.112;11.570;2022-10-16T11:40:56;28.50;99.90
15951;DHT22;8074;48.112;11.570;2022-10-16T11:43:30;28.10;99.90
15951;DHT22;8074;48.112;11.570;2022-10-16T11:46:04;27.70;99.90
15951;DHT22;8074;48.112;11.570;2022-10-16T11:48:39;27.90;99.90
15951;DHT22;8074;48.112;11.570;2022-10-16T11:51:14;28.20;99.90
15951;DHT22;8074;48.112;11.570;2022-10-16T11:54:28;28.50;99.90
15951;DHT22;8074;48.112;11.570;2022-10-16T11:57:18;28.40;99.90
15951;DHT22;8074;48.112;11.570;2022-10-16T11:59:51;28.10;99.90
15951;DHT22;8074;48.112;11.570;2022-10-16T12:02:44;27.40;99.90
15951;DHT22;8074;48.112;11.570;2022-10-16T12:05:22;27.10;99.90
15951;DHT22;8074;48.112;11.570;2022-10-16T12:07:56;27.70;99.90
15951;DHT22;8074;48.112;11.570;2022-10-16T12:10:29;27.90;99.90
15951;DHT22;8074;48.112;11.570;2022-10-16T12:13:02;28.40;99.90
15951;DHT22;8074;48.112;11.570;2022-10-16T12:15:30;28.90;99.90
15951;DHT22;8074;48.112;11.570;2022-10-16T12:18:01;28.90;99.90
15951;DHT22;8074;48.112;11.570;2022-10-16T12:20:33;29.20;99.90
15951;DHT22;8074;48.112;11.570;2022-10-16T12:23:03;29.80;99.90
15951;DHT22;8074;48.112;11.570;2022-10-16T12:25:33;29.20;99.90
15951;DHT22;8074;48.112;11.570;2022-10-16T12:28:04;29.50;99.90
15951;DHT22;8074;48.112;11.570;2022-10-16T12:30:34;29.70;99.90
15951;DHT22;8074;48.112;11.570;2022-10-16T12:33:03;30.20;99.90
15951;DHT22;8074;48.112;11.570;2022-10-16T12:35:33;30.90;99.90
15951;DHT22;8074;48.112;11.570;2022-10-16T12:38:06;31.70;99.90
15951;DHT22;8074;48.112;11.570;2022-10-16T12:40:35;31.90;99.90
15951;DHT22;8074;48.112;11.570;2022-10-16T12:43:27;33.10;99.90
15951;DHT22;8074;48.112;11.570;2022-10-16T12:46:03;32.90;99.90
15951;DHT22;8074;48.112;11.570;2022-10-16T12:48:31;34.00;99.90
15951;DHT22;8074;48.112;11.570;2022-10-16T12:51:09;34.90;99.90
15951;DHT22;8074;48.112;11.570;2022-10-16T12:53:37;35.20;99.90
15951;DHT22;8074;48.112;11.570;2022-10-16T12:56:17;35.60;99.90
15951;DHT22;8074;48.112;11.570;2022-10-16T12:58:59;36.00;99.90
15951;DHT22;8074;48.112;11.570;2022-10-16T13:01:36;36.40;99.90
15951;DHT22;8074;48.112;11.570;2022-10-16T13:04:22;37.50;99.20
15951;DHT22;8074;48.112;11.570;2022-10-16T13:06:58;37.10;98.70
15951;DHT22;8074;48.112;11.570;2022-10-16T13:09:40;38.10;97.30
15951;DHT22;8074;48.112;11.570;2022-10-16T13:12:29;38.60;96.70
15951;DHT22;8074;48.112;11.570;2022-10-16T13:15:29;39.30;96.00
15951;DHT22;8074;48.112;11.570;2022-10-16T13:18:09;38.30;94.40
15951;DHT22;8074;48.112;11.570;2022-10-16T13:23:34;37.90;95.00
15951;DHT22;8074;48.112;11.570;2022-10-16T13:26:13;38.50;93.70
15951;DHT22;8074;48.112;11.570;2022-10-16T13:28:42;40.40;92.90
15951;DHT22;8074;48.112;11.570;2022-10-16T13:31:15;39.90;92.00
15951;DHT22;8074;48.112;11.570;2022-10-16T13:33:46;39.10;91.90
15951;DHT22;8074;48.112;11.570;2022-10-16T13:36:21;38.70;91.70
15951;DHT22;8074;48.112;11.570;2022-10-16T13:38:48;38.70;91.20
15951;DHT22;8074;48.112;11.570;2022-10-16T13:41:25;37.90;91.00
15951;DHT22;8074;48.112;11.570;2022-10-16T13:43:54;38.20;91.40
15951;DHT22;8074;48.112;11.570;2022-10-16T13:46:25;40.10;90.90
15951;DHT22;8074;48.112;11.570;2022-10-16T13:48:58;39.80;90.40
15951;DHT22;8074;48.112;11.570;2022-10-16T13:54:13;41.20;86.60
15951;DHT22;8074;48.112;11.570;2022-10-16T13:56:41;41.00;85.30
15951;DHT22;8074;48.112;11.570;2022-10-16T13:59:23;40.50;85.10
15951;DHT22;8074;48.112;11.570;2022-10-16T14:01:54;38.40;86.30
15951;DHT22;8074;48.112;11.570;2022-10-16T14:04:23;39.40;86.30
15951;DHT22;8074;48.112;11.570;2022-10-16T14:06:51;40.40;83.90
15951;DHT22;8074;48.112;11.570;2022-10-16T14:09:23;40.60;82.90
15951;DHT22;8074;48.112;11.570;2022-10-16T14:11:55;38.50;83.10
15951;DHT22;8074;48.112;11.570;2022-10-16T14:14:23;38.70;85.10
15951;DHT22;8074;48.112;11.570;2022-10-16T14:16:52;39.50;84.00
15951;DHT22;8074;48.112;11.570;2022-10-16T14:19:22;38.20;84.20
15951;DHT22;8074;48.112;11.570;2022-10-16T14:21:50;39.30;84.40
15951;DHT22;8074;48.112;11.570;2022-10-16T14:24:26;38.70;84.00
15951;DHT22;8074;48.112;11.570;2022-10-16T14:26:54;39.80;83.60
15951;DHT22;8074;48.112;11.570;2022-10-16T14:29:26;40.80;82.40
15951;DHT22;8074;48.112;11.570;2022-10-16T14:31:59;40.50;81.50
15951;DHT22;8074;48.112;11.570;2022-10-16T14:34:29;40.10;79.80
15951;DHT22;8074;48.112;11.570;2022-10-16T14:36:59;40.40;80.30
15951;DHT22;8074;48.112;11.570;2022-10-16T14:39:30;37.80;81.30
15951;DHT22;8074;48.112;11.570;2022-10-16T14:41:58;36.40;82.30
15951;DHT22;8074;48.112;11.570;2022-10-16T14:44:28;36.10;82.70
15951;DHT22;8074;48.112;11.570;2022-10-16T14:46:57;36.90;84.90
15951;DHT22;8074;48.112;11.570;2022-10-16T14:49:26;36.80;85.10
15951;DHT22;8074;48.112;11.570;2022-10-16T14:54:39;34.90;82.80
15951;DHT22;8074;48.112;11.570;2022-10-16T14:57:30;34.30;88.00
15951;DHT22;8074;48.112;11.570;2022-10-16T15:00:20;33.90;88.20
15951;DHT22;8074;48.112;11.570;2022-10-16T15:03:09;32.70;90.20
15951;DHT22;8074;48.112;11.570;2022-10-16T15:05:57;32.40;90.30
15951;DHT22;8074;48.112;11.570;2022-10-16T15:08:44;31.80;91.20
15951;DHT22;8074;48.112;11.570;2022-10-16T15:11:32;30.70;93.30
15951;DHT22;8074;48.112;11.570;2022-10-16T15:14:19;30.00;93.90
15951;DHT22;8074;48.112;11.570;2022-10-16T15:17:08;29.10;95.00
15951;DHT22;8074;48.112;11.570;2022-10-16T15:19:56;28.60;95.40
15951;DHT22;8074;48.112;11.570;2022-10-16T15:22:45;28.20;96.70
15951;DHT22;8074;48.112;11.570;2022-10-16T15:25:35;27.90;97.60
15951;DHT22;8074;48.112;11.570;2022-10-16T15:28:24;27.40;97.70
15951;DHT22;8074;48.112;11.570;2022-10-16T15:31:11;27.00;98.80
15951;DHT22;8074;48.112;11.570;2022-10-16T15:33:58;26.70;99.40
15951;DHT22;8074;48.112;11.570;2022-10-16T15:36:51;26.50;99.90
15951;DHT22;8074;48.112;11.570;2022-10-16T15:39:38;26.20;99.80
15951;DHT22;8074;48.112;11.570;2022-10-16T15:42:25;26.10;99.90
15951;DHT22;8074;48.112;11.570;2022-10-16T15:45:13;25.70;99.90
15951;DHT22;8074;48.112;11.570;2022-10-16T15:48:00;25.20;99.90
15951;DHT22;8074;48.112;11.570;2022-10-16T15:50:47;24.30;99.90
15951;DHT22;8074;48.112;11.570;2022-10-16T15:53:36;23.90;99.90
15951;DHT22;8074;48.112;11.570;2022-10-16T15:56:23;23.80;99.90
15951;DHT22;8074;48.112;11.570;2022-10-16T15:59:12;23.80;99.90
15951;DHT22;8074;48.112;11.570;2022-10-16T16:01:59;23.60;99.90
15951;DHT22;8074;48.112;11.570;2022-10-16T16:04:46;23.30;99.90
15951;DHT22;8074;48.112;11.570;2022-10-16T16:07:34;22.80;99.90
15951;DHT22;8074;48.112;11.570;2022-10-16T16:10:22;22.70;99.90
15951;DHT22;8074;48.112;11.570;2022-10-16T16:13:09;22.70;99.90
15951;DHT22;8074;48.112;11.570;2022-10-16T16:15:57;22.50;99.90
15951;DHT22;8074;48.112;11.570;2022-10-16T16:18:44;22.20;99.90
15951;DHT22;8074;48.112;11.570;2022-10-16T16:21:31;22.00;99.90
15951;DHT22;8074;48.112;11.570;2022-10-16T16:24:18;21.80;99.90
15951;DHT22;8074;48.112;11.570;2022-10-16T16:27:07;21.40;99.90
15951;DHT22;8074;48.112;11.570;2022-10-16T16:29:54;21.30;99.90
15951;DHT22;8074;48.112;11.570;2022-10-16T16:32:42;21.10;99.90
15951;DHT22;8074;48.112;11.570;2022-10-16T16:35:29;20.70;99.90
15951;DHT22;8074;48.112;11.570;2022-10-16T16:38:17;20.60;99.90
15951;DHT22;8074;48.112;11.570;2022-10-16T16:41:11;20.60;99.90
15951;DHT22;8074;48.112;11.570;2022-10-16T16:44:08;20.60;99.90